createdAt,value
2022-09-27T00:02:01.159Z,14.76
2022-09-27T00:04:35.976Z,14.69
2022-09-27T00:07:10.423Z,14.66
2022-09-27T00:09:45.326Z,14.62
2022-09-27T00:12:18.805Z,14.57
2022-09-27T00:14:51.923Z,14.54
2022-09-27T00:17:32.341Z,14.51
2022-09-27T00:20:12.036Z,14.47
2022-09-27T00:22:50.192Z,14.43
2022-09-27T00:25:23.046Z,14.39
2022-09-27T00:27:57.394Z,14.38
2022-09-27T00:30:30.741Z,14.34
2022-09-27T00:33:05.614Z,14.35
2022-09-27T00:35:41.262Z,14.31
2022-09-27T00:38:16.438Z,14.31
2022-09-27T00:40:53.339Z,14.28
2022-09-27T00:43:44.211Z,14.29
2022-09-27T00:46:26.240Z,14.27
2022-09-27T00:49:08.092Z,14.27
2022-09-27T00:51:43.692Z,14.24
2022-09-27T00:54:28.361Z,14.25
2022-09-27T00:57:04.634Z,14.25
2022-09-27T00:59:45.707Z,14.25
2022-09-27T01:02:22.658Z,14.24
2022-09-27T01:04:59.940Z,14.26
2022-09-27T01:07:40.549Z,14.24
2022-09-27T01:10:20.685Z,14.23
2022-09-27T01:13:02.299Z,14.27
2022-09-27T01:15:49.358Z,14.27
2022-09-27T01:18:32.224Z,14.27
2022-09-27T01:21:53.363Z,14.26
2022-09-27T01:24:56.937Z,14.28
2022-09-27T01:28:21.497Z,14.28
2022-09-27T01:31:07.043Z,14.29
2022-09-27T01:33:49.247Z,14.29
2022-09-27T01:36:32.661Z,14.29
2022-09-27T01:39:23.423Z,14.30
2022-09-27T01:42:04.072Z,14.32
2022-09-27T01:44:42.410Z,14.32
2022-09-27T01:47:23.594Z,14.32
2022-09-27T01:50:04.441Z,14.34
2022-09-27T01:52:42.519Z,14.33
2022-09-27T01:55:20.511Z,14.35
2022-09-27T01:58:00.463Z,14.36
2022-09-27T02:00:35.198Z,14.36
2022-09-27T02:03:14.719Z,14.39
2022-09-27T02:05:54.132Z,14.42
2022-09-27T02:08:40.002Z,14.46
2022-09-27T02:11:15.102Z,14.45
2022-09-27T02:13:57.099Z,14.46
2022-09-27T02:16:44.483Z,14.47
2022-09-27T02:19:36.657Z,14.45
2022-09-27T02:22:20.107Z,14.43
2022-09-27T02:25:02.780Z,14.40
2022-09-27T02:27:43.620Z,14.37
2022-09-27T02:30:17.668Z,14.34
2022-09-27T02:32:50.884Z,14.31
2022-09-27T02:35:29.703Z,14.30
2022-09-27T02:38:03.653Z,14.26
2022-09-27T02:40:44.380Z,14.26
2022-09-27T02:43:21.177Z,14.22
2022-09-27T02:46:10.135Z,14.21
2022-09-27T02:48:55.098Z,14.16
2022-09-27T02:51:39.570Z,14.13
2022-09-27T02:54:20.913Z,14.09
2022-09-27T02:57:07.756Z,14.07
2022-09-27T02:59:54.285Z,14.06
2022-09-27T03:02:38.990Z,14.05
2022-09-27T03:05:18.834Z,14.03
2022-09-27T03:07:57.524Z,14.02
2022-09-27T03:10:31.049Z,14.00
2022-09-27T03:13:06.506Z,14.00
2022-09-27T03:15:41.064Z,13.99
2022-09-27T03:18:14.386Z,13.99
2022-09-27T03:20:47.434Z,13.98
2022-09-27T03:23:22.572Z,14.02
2022-09-27T03:25:56.276Z,14.02
2022-09-27T03:28:30.130Z,14.04
2022-09-27T03:31:06.282Z,14.04
2022-09-27T03:33:39.873Z,14.06
2022-09-27T03:36:13.451Z,14.07
2022-09-27T03:38:48.273Z,14.08
2022-09-27T03:41:22.420Z,14.06
2022-09-27T03:43:58.164Z,14.07
2022-09-27T03:46:31.236Z,14.04
2022-09-27T03:49:08.092Z,14.02
2022-09-27T03:51:43.095Z,13.96
2022-09-27T03:54:19.787Z,13.91
2022-09-27T03:56:53.648Z,13.84
2022-09-27T03:59:27.478Z,13.75
2022-09-27T04:02:02.723Z,13.68
2022-09-27T04:04:35.810Z,13.60
2022-09-27T04:07:10.749Z,13.49
2022-09-27T04:09:47.053Z,13.38
2022-09-27T04:12:22.781Z,13.29
2022-09-27T04:14:56.459Z,13.19
2022-09-27T04:17:30.014Z,13.09
2022-09-27T04:20:07.031Z,13.01
2022-09-27T04:22:42.574Z,12.94
2022-09-27T04:25:20.152Z,12.89
2022-09-27T04:27:55.529Z,12.80
2022-09-27T04:30:30.376Z,12.75
2022-09-27T04:33:05.301Z,12.71
2022-09-27T04:35:57.865Z,12.67
2022-09-27T04:38:36.285Z,12.60
2022-09-27T04:41:14.075Z,12.58
2022-09-27T04:43:48.139Z,12.51
2022-09-27T04:46:26.057Z,12.50
2022-09-27T04:49:05.506Z,12.45
2022-09-27T04:51:42.928Z,12.42
2022-09-27T04:54:19.014Z,12.41
2022-09-27T04:56:53.788Z,12.39
2022-09-27T04:59:28.968Z,12.37
2022-09-27T05:02:02.217Z,12.34
2022-09-27T05:04:38.167Z,12.33
2022-09-27T05:07:11.495Z,12.35
2022-09-27T05:09:45.579Z,12.37
2022-09-27T05:12:20.603Z,12.41
2022-09-27T05:14:57.570Z,12.46
2022-09-27T05:17:45.651Z,12.55
2022-09-27T05:20:19.568Z,12.58
2022-09-27T05:22:54.715Z,12.64
2022-09-27T05:25:33.170Z,12.70
2022-09-27T05:28:09.287Z,12.77
2022-09-27T05:30:42.251Z,12.81
2022-09-27T05:33:17.157Z,12.88
2022-09-27T05:35:57.016Z,12.94
2022-09-27T05:38:30.120Z,12.97
2022-09-27T05:41:04.089Z,13.02
2022-09-27T05:43:40.302Z,13.07
2022-09-27T05:46:14.100Z,13.10
2022-09-27T05:48:57.629Z,13.14
2022-09-27T05:51:31.606Z,13.19
2022-09-27T05:54:07.021Z,13.23
2022-09-27T05:56:40.371Z,13.25
2022-09-27T05:59:18.522Z,13.29
2022-09-27T06:01:56.210Z,13.32
2022-09-27T06:04:29.394Z,13.34
2022-09-27T06:07:04.008Z,13.37
2022-09-27T06:09:39.450Z,13.42
2022-09-27T06:12:15.761Z,13.44
2022-09-27T06:14:50.409Z,13.49
2022-09-27T06:17:28.765Z,13.52
2022-09-27T06:20:02.425Z,13.56
2022-09-27T06:22:37.749Z,13.58
2022-09-27T06:25:15.636Z,13.61
2022-09-27T06:27:49.545Z,13.62
2022-09-27T06:30:27.205Z,13.65
2022-09-27T06:33:02.305Z,13.67
2022-09-27T06:35:37.864Z,13.70
2022-09-27T06:38:13.597Z,13.71
2022-09-27T06:40:47.727Z,13.74
2022-09-27T06:43:22.070Z,13.76
2022-09-27T06:45:56.736Z,13.81
2022-09-27T06:48:30.138Z,13.86
2022-09-27T06:51:04.071Z,13.89
2022-09-27T06:53:49.196Z,13.94
2022-09-27T06:56:22.910Z,13.99
2022-09-27T06:59:17.184Z,14.02
2022-09-27T07:01:52.980Z,14.09
2022-09-27T07:04:32.165Z,14.14
2022-09-27T07:07:13.577Z,14.21
2022-09-27T07:09:48.253Z,14.26
2022-09-27T07:12:24.078Z,14.31
2022-09-27T07:14:58.626Z,14.35
2022-09-27T07:17:32.936Z,14.39
2022-09-27T07:20:06.917Z,14.43
2022-09-27T07:22:49.394Z,14.49
2022-09-27T07:25:22.740Z,14.50
2022-09-27T07:27:56.583Z,14.53
2022-09-27T07:30:32.454Z,14.55
2022-09-27T07:33:07.691Z,14.56
2022-09-27T07:35:46.157Z,14.55
2022-09-27T07:38:19.074Z,14.54
2022-09-27T07:40:52.798Z,14.53
2022-09-27T07:43:26.613Z,14.52
2022-09-27T07:45:59.927Z,14.52
2022-09-27T07:48:34.824Z,14.52
2022-09-27T07:51:10.885Z,14.52
2022-09-27T07:53:45.360Z,14.55
2022-09-27T07:56:18.211Z,14.59
2022-09-27T07:58:52.984Z,14.63
2022-09-27T08:01:26.390Z,14.68
2022-09-27T08:04:03.714Z,14.71
2022-09-27T08:06:37.217Z,14.71
2022-09-27T08:09:11.563Z,14.72
2022-09-27T08:11:46.187Z,14.72
2022-09-27T08:14:20.471Z,14.73
2022-09-27T08:16:55.755Z,14.77
2022-09-27T08:19:32.156Z,14.80
2022-09-27T08:22:08.629Z,14.80
2022-09-27T08:24:42.621Z,14.81
2022-09-27T08:27:15.909Z,14.83
2022-09-27T08:29:51.611Z,14.83
2022-09-27T08:32:25.189Z,14.83
2022-09-27T08:35:00.105Z,14.85
2022-09-27T08:37:33.727Z,14.84
2022-09-27T08:40:09.229Z,14.86
2022-09-27T08:42:51.137Z,14.92
2022-09-27T08:45:29.412Z,14.95
2022-09-27T08:48:09.378Z,15.06
2022-09-27T08:50:48.033Z,15.14
2022-09-27T08:53:32.127Z,15.21
2022-09-27T08:56:10.117Z,15.29
2022-09-27T08:58:54.060Z,15.37
2022-09-27T09:01:29.162Z,15.48
2022-09-27T09:04:05.449Z,15.60
2022-09-27T09:06:56.025Z,15.78
2022-09-27T09:09:46.559Z,15.98
2022-09-27T09:12:48.397Z,16.19
2022-09-27T09:15:56.488Z,16.45
2022-09-27T09:18:44.302Z,16.74
2022-09-27T09:21:26.222Z,16.97
2022-09-27T09:24:21.962Z,17.20
2022-09-27T09:27:03.532Z,17.38
2022-09-27T09:29:58.532Z,17.45
2022-09-27T09:32:39.874Z,17.51
2022-09-27T09:35:16.933Z,17.55
2022-09-27T09:37:54.549Z,17.61
2022-09-27T09:40:32.688Z,17.72
2022-09-27T09:43:12.538Z,17.84
2022-09-27T09:45:48.404Z,18.01
2022-09-27T09:48:29.830Z,18.18
2022-09-27T09:51:08.815Z,18.33
2022-09-27T09:53:48.020Z,18.50
2022-09-27T09:56:27.780Z,18.63
2022-09-27T09:59:03.009Z,18.74
2022-09-27T10:01:40.530Z,18.86
2022-09-27T10:04:21.138Z,18.96
2022-09-27T10:06:54.895Z,19.01
2022-09-27T10:09:29.773Z,19.06
2022-09-27T10:12:05.272Z,19.08
2022-09-27T10:14:39.434Z,19.09
2022-09-27T10:17:16.297Z,19.13
2022-09-27T10:19:50.214Z,19.14
2022-09-27T10:22:29.033Z,19.18
2022-09-27T10:25:03.594Z,19.18
2022-09-27T10:27:43.620Z,19.20
2022-09-27T10:30:29.115Z,19.25
2022-09-27T10:33:06.713Z,19.28
2022-09-27T10:35:43.619Z,19.34
2022-09-27T10:38:27.758Z,19.41
2022-09-27T10:41:18.622Z,19.41
2022-09-27T10:43:52.895Z,19.38
2022-09-27T10:46:29.049Z,19.37
2022-09-27T10:49:17.795Z,19.38
2022-09-27T10:51:54.686Z,19.33
2022-09-27T10:54:30.219Z,19.29
2022-09-27T10:57:06.539Z,19.25
2022-09-27T10:59:43.870Z,19.16
2022-09-27T11:02:22.107Z,19.02
2022-09-27T11:05:13.847Z,18.76
2022-09-27T11:07:53.508Z,18.40
2022-09-27T11:10:36.262Z,18.01
2022-09-27T11:13:14.723Z,17.56
2022-09-27T11:16:07.446Z,17.14
2022-09-27T11:18:50.994Z,16.76
2022-09-27T11:21:45.861Z,16.45
2022-09-27T11:24:41.871Z,16.20
2022-09-27T11:27:25.706Z,16.01
2022-09-27T11:30:09.617Z,15.90
2022-09-27T11:33:20.302Z,15.82
2022-09-27T11:36:05.711Z,15.76
2022-09-27T11:38:54.039Z,15.76
2022-09-27T11:41:39.072Z,15.70
2022-09-27T11:44:39.671Z,15.69
2022-09-27T11:47:21.109Z,15.66
2022-09-27T11:50:27.840Z,15.70
2022-09-27T11:53:22.647Z,15.69
2022-09-27T11:56:07.407Z,15.67
2022-09-27T11:59:01.198Z,15.64
2022-09-27T12:01:45.249Z,15.56
2022-09-27T12:05:01.972Z,15.46
2022-09-27T12:07:43.764Z,15.34
2022-09-27T12:10:21.311Z,15.23
2022-09-27T12:12:58.319Z,15.11
2022-09-27T12:15:37.907Z,14.98
2022-09-27T12:18:16.875Z,14.91
2022-09-27T12:20:51.743Z,14.82
2022-09-27T12:23:34.559Z,14.77
2022-09-27T12:26:17.049Z,14.78
2022-09-27T12:28:57.238Z,14.76
2022-09-27T12:31:34.588Z,14.77
2022-09-27T12:34:19.554Z,14.80
2022-09-27T12:37:00.661Z,14.86
2022-09-27T12:39:43.563Z,14.96
2022-09-27T12:42:21.729Z,15.05
2022-09-27T12:44:57.498Z,15.21
2022-09-27T12:48:01.567Z,15.39
2022-09-27T12:50:39.382Z,15.59
2022-09-27T12:53:20.553Z,15.76
2022-09-27T12:56:11.821Z,15.96
2022-09-27T12:59:23.028Z,16.17
2022-09-27T13:02:23.600Z,16.40
2022-09-27T13:05:19.053Z,16.57
2022-09-27T13:08:01.804Z,16.67
2022-09-27T13:10:48.000Z,16.74
2022-09-27T13:13:26.292Z,16.79
2022-09-27T13:16:01.488Z,16.83
2022-09-27T13:19:01.542Z,16.93
2022-09-27T13:21:57.616Z,17.04
2022-09-27T13:24:32.790Z,17.12
2022-09-27T13:27:37.259Z,17.19
2022-09-27T13:30:48.548Z,17.27
2022-09-27T13:33:43.556Z,17.31
2022-09-27T13:36:31.546Z,17.38
2022-09-27T13:39:25.993Z,17.41
2022-09-27T13:42:16.870Z,17.46
2022-09-27T13:45:18.894Z,17.49
2022-09-27T13:47:52.465Z,17.50
2022-09-27T13:50:29.283Z,17.53
2022-09-27T13:53:08.562Z,17.53
2022-09-27T13:55:47.253Z,17.50
2022-09-27T13:58:36.892Z,17.48
2022-09-27T14:01:21.728Z,17.47
2022-09-27T14:03:57.426Z,17.45
2022-09-27T14:06:35.341Z,17.43
2022-09-27T14:09:19.631Z,17.41
2022-09-27T14:11:56.374Z,17.34
2022-09-27T14:14:32.973Z,17.27
2022-09-27T14:17:10.262Z,17.19
2022-09-27T14:19:45.197Z,17.10
2022-09-27T14:22:20.674Z,17.00
2022-09-27T14:24:56.595Z,16.91
2022-09-27T14:27:30.894Z,16.82
2022-09-27T14:30:15.505Z,16.74
2022-09-27T14:32:51.639Z,16.64
2022-09-27T14:35:44.365Z,16.54
2022-09-27T14:38:37.273Z,16.47
2022-09-27T14:41:12.785Z,16.41
2022-09-27T14:43:50.761Z,16.34
2022-09-27T14:46:31.890Z,16.28
2022-09-27T14:49:14.528Z,16.21
2022-09-27T14:51:53.983Z,16.11
2022-09-27T14:54:30.551Z,16.02
2022-09-27T14:57:08.577Z,15.95
2022-09-27T14:59:46.263Z,15.83
2022-09-27T15:02:22.267Z,15.73
2022-09-27T15:04:58.653Z,15.64
2022-09-27T15:07:33.215Z,15.53
2022-09-27T15:10:07.402Z,15.44
2022-09-27T15:12:48.755Z,15.36
2022-09-27T15:15:25.282Z,15.27
2022-09-27T15:18:06.524Z,15.15
2022-09-27T15:20:54.640Z,15.08
2022-09-27T15:23:30.041Z,14.98
2022-09-27T15:26:13.996Z,14.88
2022-09-27T15:28:52.661Z,14.81
2022-09-27T15:31:31.822Z,14.78
2022-09-27T15:34:06.364Z,14.70
2022-09-27T15:36:55.668Z,14.66
2022-09-27T15:39:32.526Z,14.64
2022-09-27T15:42:10.121Z,14.59
2022-09-27T15:44:49.761Z,14.59
2022-09-27T15:47:51.323Z,14.58
2022-09-27T15:50:37.078Z,14.54
2022-09-27T15:53:11.017Z,14.52
2022-09-27T15:55:45.808Z,14.51
2022-09-27T15:58:22.980Z,14.46
2022-09-27T16:01:02.532Z,14.45
2022-09-27T16:03:36.226Z,14.39
2022-09-27T16:06:14.425Z,14.39
2022-09-27T16:08:47.328Z,14.34
2022-09-27T16:11:20.781Z,14.33
2022-09-27T16:13:55.315Z,14.31
2022-09-27T16:16:29.726Z,14.30
2022-09-27T16:19:02.821Z,14.27
2022-09-27T16:21:35.657Z,14.26
2022-09-27T16:24:08.548Z,14.23
2022-09-27T16:26:41.962Z,14.20
2022-09-27T16:29:16.839Z,14.16
2022-09-27T16:31:53.625Z,14.09
2022-09-27T16:34:29.973Z,14.02
2022-09-27T16:37:05.138Z,13.91
2022-09-27T16:39:39.505Z,13.80
2022-09-27T16:42:13.837Z,13.69
2022-09-27T16:44:48.323Z,13.60
2022-09-27T16:47:22.949Z,13.53
2022-09-27T16:50:13.943Z,13.44
2022-09-27T16:52:50.293Z,13.38
2022-09-27T16:55:24.145Z,13.30
2022-09-27T16:57:59.927Z,13.24
2022-09-27T17:00:33.790Z,13.17
2022-09-27T17:03:09.062Z,13.11
2022-09-27T17:05:42.334Z,13.05
2022-09-27T17:08:40.975Z,13.00
2022-09-27T17:11:16.263Z,12.94
2022-09-27T17:13:50.353Z,12.90
2022-09-27T17:16:23.542Z,12.85
2022-09-27T17:18:58.169Z,12.82
2022-09-27T17:21:35.674Z,12.77
2022-09-27T17:24:10.932Z,12.75
2022-09-27T17:26:44.215Z,12.73
2022-09-27T17:29:17.737Z,12.72
2022-09-27T17:31:50.919Z,12.70
2022-09-27T17:34:25.771Z,12.68
2022-09-27T17:37:00.853Z,12.68
2022-09-27T17:39:34.311Z,12.66
2022-09-27T17:42:10.468Z,12.65
2022-09-27T17:44:43.378Z,12.66
2022-09-27T17:47:34.797Z,12.66
2022-09-27T17:50:28.598Z,12.65
2022-09-27T17:53:01.886Z,12.64
2022-09-27T17:55:36.073Z,12.65
2022-09-27T17:58:23.017Z,12.67
2022-09-27T18:01:00.333Z,12.67
2022-09-27T18:03:34.334Z,12.67
2022-09-27T18:06:10.903Z,12.69
2022-09-27T18:08:44.640Z,12.69
2022-09-27T18:11:20.610Z,12.71
2022-09-27T18:13:53.735Z,12.71
2022-09-27T18:16:29.997Z,12.74
2022-09-27T18:19:04.780Z,12.72
2022-09-27T18:21:40.027Z,12.75
2022-09-27T18:24:14.581Z,12.75
2022-09-27T18:26:49.167Z,12.78
2022-09-27T18:29:22.669Z,12.79
2022-09-27T18:31:55.749Z,12.83
2022-09-27T18:34:30.108Z,12.85
2022-09-27T18:37:04.754Z,12.86
2022-09-27T18:39:39.932Z,12.87
2022-09-27T18:42:12.774Z,12.90
2022-09-27T18:44:45.921Z,12.92
2022-09-27T18:47:19.091Z,12.94
2022-09-27T18:49:52.142Z,12.94
2022-09-27T18:52:27.093Z,12.97
2022-09-27T18:55:00.383Z,12.96
2022-09-27T18:57:34.601Z,12.97
2022-09-27T19:00:09.434Z,12.96
2022-09-27T19:02:42.594Z,12.97
2022-09-27T19:05:15.942Z,12.94
2022-09-27T19:07:50.527Z,12.94
2022-09-27T19:10:25.064Z,12.90
2022-09-27T19:12:58.334Z,12.87
2022-09-27T19:15:33.767Z,12.84
2022-09-27T19:18:06.796Z,12.80
2022-09-27T19:20:39.949Z,12.78
2022-09-27T19:23:14.589Z,12.78
2022-09-27T19:25:47.801Z,12.78
2022-09-27T19:28:21.391Z,12.79
2022-09-27T19:30:54.560Z,12.80
2022-09-27T19:33:27.543Z,12.82
2022-09-27T19:36:01.753Z,12.86
2022-09-27T19:38:49.414Z,12.89
2022-09-27T19:41:22.314Z,12.90
2022-09-27T19:43:56.850Z,12.95
2022-09-27T19:46:31.095Z,12.95
2022-09-27T19:49:04.117Z,12.97
2022-09-27T19:51:37.507Z,13.01
2022-09-27T19:54:13.637Z,13.04
2022-09-27T19:56:47.004Z,13.04
2022-09-27T19:59:22.779Z,13.05
2022-09-27T20:01:55.811Z,13.07
2022-09-27T20:04:28.746Z,13.09
2022-09-27T20:07:01.612Z,13.10
2022-09-27T20:09:36.973Z,13.13
2022-09-27T20:12:10.489Z,13.13
2022-09-27T20:14:43.958Z,13.13
2022-09-27T20:17:17.587Z,13.15
2022-09-27T20:19:50.682Z,13.12
2022-09-27T20:22:23.786Z,13.09
2022-09-27T20:24:58.044Z,13.07
2022-09-27T20:27:30.983Z,13.05
2022-09-27T20:30:04.635Z,13.03
2022-09-27T20:32:37.798Z,13.02
2022-09-27T20:35:11.447Z,13.03
2022-09-27T20:37:44.990Z,13.04
2022-09-27T20:40:26.971Z,13.04
2022-09-27T20:43:00.468Z,13.03
2022-09-27T20:45:39.360Z,13.05
2022-09-27T20:48:13.538Z,13.06
2022-09-27T20:50:48.503Z,13.09
2022-09-27T20:53:23.374Z,13.10
2022-09-27T20:56:03.066Z,13.14
2022-09-27T20:58:36.139Z,13.12
2022-09-27T21:01:10.485Z,13.14
2022-09-27T21:03:43.817Z,13.14
2022-09-27T21:06:17.416Z,13.13
2022-09-27T21:08:51.418Z,13.16
2022-09-27T21:11:26.283Z,13.18
2022-09-27T21:13:59.747Z,13.19
2022-09-27T21:16:36.481Z,13.21
2022-09-27T21:19:11.290Z,13.21
2022-09-27T21:21:46.839Z,13.23
2022-09-27T21:24:22.638Z,13.20
2022-09-27T21:26:58.420Z,13.23
2022-09-27T21:29:31.605Z,13.25
2022-09-27T21:32:04.631Z,13.25
2022-09-27T21:34:37.972Z,13.25
2022-09-27T21:37:10.942Z,13.21
2022-09-27T21:39:43.963Z,13.21
2022-09-27T21:42:18.639Z,13.21
2022-09-27T21:44:52.022Z,13.20
2022-09-27T21:47:25.081Z,13.17
2022-09-27T21:49:58.239Z,13.16
2022-09-27T21:52:31.284Z,13.16
2022-09-27T21:55:06.392Z,13.15
2022-09-27T21:57:42.548Z,13.15
2022-09-27T22:00:16.274Z,13.14
2022-09-27T22:02:49.168Z,13.16
2022-09-27T22:05:22.870Z,13.16
2022-09-27T22:08:02.066Z,13.19
2022-09-27T22:10:35.515Z,13.19
2022-09-27T22:13:10.634Z,13.23
2022-09-27T22:15:44.334Z,13.24
2022-09-27T22:18:17.825Z,13.26
2022-09-27T22:20:50.879Z,13.28
2022-09-27T22:23:24.019Z,13.32
2022-09-27T22:25:57.752Z,13.32
2022-09-27T22:28:32.375Z,13.34
2022-09-27T22:31:05.782Z,13.35
2022-09-27T22:33:41.454Z,13.35
2022-09-27T22:36:14.475Z,13.34
2022-09-27T22:38:47.826Z,13.33
2022-09-27T22:41:21.829Z,13.28
2022-09-27T22:43:56.721Z,13.28
2022-09-27T22:46:29.924Z,13.25
2022-09-27T22:49:03.454Z,13.23
2022-09-27T22:51:36.365Z,13.19
2022-09-27T22:54:09.973Z,13.16
2022-09-27T22:56:43.945Z,13.14
2022-09-27T22:59:18.637Z,13.13
2022-09-27T23:01:51.598Z,13.13
2022-09-27T23:04:25.542Z,13.10
2022-09-27T23:06:59.209Z,13.09
2022-09-27T23:09:32.146Z,13.07
2022-09-27T23:12:05.549Z,13.08
2022-09-27T23:14:42.624Z,13.08
2022-09-27T23:17:17.084Z,13.07
2022-09-27T23:19:50.060Z,13.04
2022-09-27T23:22:23.139Z,13.05
2022-09-27T23:24:58.388Z,13.03
2022-09-27T23:27:46.018Z,13.01
2022-09-27T23:30:26.364Z,12.98
2022-09-27T23:32:59.453Z,12.94
2022-09-27T23:35:33.900Z,12.92
2022-09-27T23:38:11.410Z,12.89
2022-09-27T23:40:46.849Z,12.89
2022-09-27T23:43:20.650Z,12.88
2022-09-27T23:45:59.840Z,12.89
2022-09-27T23:48:33.588Z,12.87
2022-09-27T23:51:08.396Z,12.89
2022-09-27T23:53:44.704Z,12.90
2022-09-27T23:56:19.632Z,12.91
2022-09-27T23:58:52.646Z,12.90
